sensor_id;sensor_type;location;lat;lon;timestamp;pressure;altitude;pressure_sealevel;temperature;humidity
16120;BME280;12670;53.502;10.252;2022-11-11T00:02:50;102213.31;;;12.63;95.22
16120;BME280;12670;53.502;10.252;2022-11-11T00:05:59;102213.34;;;12.62;95.36
16120;BME280;12670;53.502;10.252;2022-11-11T00:09:02;102223.16;;;12.60;95.43
16120;BME280;12670;53.502;10.252;2022-11-11T00:12:05;102225.47;;;12.72;95.12
16120;BME280;12670;53.502;10.252;2022-11-11T00:15:08;102232.38;;;12.46;94.99
16120;BME280;12670;53.502;10.252;2022-11-11T00:18:11;102238.47;;;12.51;95.80
16120;BME280;12670;53.502;10.252;2022-11-11T00:21:33;102235.16;;;12.76;95.17
16120;BME280;12670;53.502;10.252;2022-11-11T00:24:53;102228.19;;;12.70;94.69
16120;BME280;12670;53.502;10.252;2022-11-11T00:28:08;102238.72;;;12.75;94.84
16120;BME280;12670;53.502;10.252;2022-11-11T00:31:12;102223.78;;;12.69;94.36
16120;BME280;12670;53.502;10.252;2022-11-11T00:34:15;102230.09;;;12.65;95.43
16120;BME280;12670;53.502;10.252;2022-11-11T00:37:19;102226.53;;;12.66;94.87
16120;BME280;12670;53.502;10.252;2022-11-11T00:40:21;102236.47;;;12.60;96.66
16120;BME280;12670;53.502;10.252;2022-11-11T00:43:24;102221.94;;;12.73;95.19
16120;BME280;12670;53.502;10.252;2022-11-11T00:46:26;102227.81;;;12.51;95.86
16120;BME280;12670;53.502;10.252;2022-11-11T00:49:47;102214.88;;;12.36;96.56
16120;BME280;12670;53.502;10.252;2022-11-11T00:53:11;102220.31;;;12.33;97.61
16120;BME280;12670;53.502;10.252;2022-11-11T00:56:15;102231.41;;;12.50;97.44
16120;BME280;12670;53.502;10.252;2022-11-11T00:59:17;102226.34;;;12.40;96.87
16120;BME280;12670;53.502;10.252;2022-11-11T01:02:33;102216.25;;;12.52;96.26
16120;BME280;12670;53.502;10.252;2022-11-11T01:05:36;102229.78;;;12.45;96.67
16120;BME280;12670;53.502;10.252;2022-11-11T01:08:41;102232.66;;;12.70;96.06
16120;BME280;12670;53.502;10.252;2022-11-11T01:11:44;102242.72;;;12.59;96.04
16120;BME280;12670;53.502;10.252;2022-11-11T01:14:47;102232.41;;;12.79;95.26
16120;BME280;12670;53.502;10.252;2022-11-11T01:17:49;102242.53;;;12.65;96.69
16120;BME280;12670;53.502;10.252;2022-11-11T01:20:59;102245.31;;;12.62;96.09
16120;BME280;12670;53.502;10.252;2022-11-11T01:24:04;102250.41;;;12.35;97.36
16120;BME280;12670;53.502;10.252;2022-11-11T01:27:07;102239.34;;;12.52;96.40
16120;BME280;12670;53.502;10.252;2022-11-11T01:30:10;102256.56;;;12.73;96.76
16120;BME280;12670;53.502;10.252;2022-11-11T01:33:14;102254.22;;;12.59;96.43
16120;BME280;12670;53.502;10.252;2022-11-11T01:36:18;102262.28;;;12.58;97.42
16120;BME280;12670;53.502;10.252;2022-11-11T01:39:23;102252.22;;;12.69;96.76
16120;BME280;12670;53.502;10.252;2022-11-11T01:42:26;102248.03;;;12.59;97.59
16120;BME280;12670;53.502;10.252;2022-11-11T01:45:47;102237.81;;;12.76;96.26
16120;BME280;12670;53.502;10.252;2022-11-11T01:48:53;102241.56;;;12.69;96.17
16120;BME280;12670;53.502;10.252;2022-11-11T01:52:17;102231.66;;;12.74;96.07
16120;BME280;12670;53.502;10.252;2022-11-11T01:55:23;102235.31;;;12.70;96.46
16120;BME280;12670;53.502;10.252;2022-11-11T01:58:28;102235.03;;;12.46;96.94
16120;BME280;12670;53.502;10.252;2022-11-11T02:01:31;102227.69;;;12.56;98.24
16120;BME280;12670;53.502;10.252;2022-11-11T02:04:35;102218.50;;;12.68;97.62
16120;BME280;12670;53.502;10.252;2022-11-11T02:07:58;102223.47;;;12.47;97.59
16120;BME280;12670;53.502;10.252;2022-11-11T02:11:08;102223.63;;;12.41;97.27
16120;BME280;12670;53.502;10.252;2022-11-11T02:14:12;102228.75;;;12.50;97.60
16120;BME280;12670;53.502;10.252;2022-11-11T02:17:33;102221.56;;;12.52;98.33
16120;BME280;12670;53.502;10.252;2022-11-11T02:20:38;102218.25;;;12.44;98.54
16120;BME280;12670;53.502;10.252;2022-11-11T02:23:45;102221.47;;;12.57;97.50
16120;BME280;12670;53.502;10.252;2022-11-11T02:26:52;102215.22;;;12.58;96.71
16120;BME280;12670;53.502;10.252;2022-11-11T02:30:00;102212.31;;;12.33;97.86
16120;BME280;12670;53.502;10.252;2022-11-11T02:33:03;102206.41;;;12.22;99.12
16120;BME280;12670;53.502;10.252;2022-11-11T02:36:13;102195.75;;;12.22;99.92
16120;BME280;12670;53.502;10.252;2022-11-11T02:39:17;102190.50;;;12.19;98.51
16120;BME280;12670;53.502;10.252;2022-11-11T02:42:34;102198.31;;;12.25;98.59
16120;BME280;12670;53.502;10.252;2022-11-11T02:45:37;102192.69;;;12.01;99.62
16120;BME280;12670;53.502;10.252;2022-11-11T02:48:39;102189.88;;;12.09;99.75
16120;BME280;12670;53.502;10.252;2022-11-11T02:51:42;102181.53;;;12.23;99.15
16120;BME280;12670;53.502;10.252;2022-11-11T02:54:45;102180.97;;;12.10;98.77
16120;BME280;12670;53.502;10.252;2022-11-11T02:57:51;102184.88;;;11.97;100.00
16120;BME280;12670;53.502;10.252;2022-11-11T03:00:53;102213.78;;;12.11;99.77
16120;BME280;12670;53.502;10.252;2022-11-11T03:03:56;102210.50;;;11.99;100.00
16120;BME280;12670;53.502;10.252;2022-11-11T03:06:59;102196.22;;;12.04;100.00
16120;BME280;12670;53.502;10.252;2022-11-11T03:10:02;102208.31;;;12.17;99.69
16120;BME280;12670;53.502;10.252;2022-11-11T03:13:07;102220.94;;;12.09;100.00
16120;BME280;12670;53.502;10.252;2022-11-11T03:16:09;102225.28;;;12.11;100.00
16120;BME280;12670;53.502;10.252;2022-11-11T03:19:32;102229.69;;;12.14;100.00
16120;BME280;12670;53.502;10.252;2022-11-11T03:22:34;102230.69;;;12.08;99.48
16120;BME280;12670;53.502;10.252;2022-11-11T03:25:55;102234.44;;;12.35;98.55
16120;BME280;12670;53.502;10.252;2022-11-11T03:29:00;102239.69;;;12.38;98.81
16120;BME280;12670;53.502;10.252;2022-11-11T03:32:03;102245.25;;;12.29;97.50
16120;BME280;12670;53.502;10.252;2022-11-11T03:35:06;102244.88;;;12.07;99.36
16120;BME280;12670;53.502;10.252;2022-11-11T03:38:11;102243.09;;;12.08;99.17
16120;BME280;12670;53.502;10.252;2022-11-11T03:41:16;102242.41;;;11.99;99.53
16120;BME280;12670;53.502;10.252;2022-11-11T03:44:20;102243.44;;;11.94;99.81
16120;BME280;12670;53.502;10.252;2022-11-11T03:47:23;102247.53;;;12.09;99.56
16120;BME280;12670;53.502;10.252;2022-11-11T03:50:25;102244.09;;;12.04;100.00
16120;BME280;12670;53.502;10.252;2022-11-11T03:53:28;102247.97;;;11.90;100.00
16120;BME280;12670;53.502;10.252;2022-11-11T03:56:31;102245.41;;;11.86;99.83
16120;BME280;12670;53.502;10.252;2022-11-11T03:59:35;102244.44;;;11.88;99.75
16120;BME280;12670;53.502;10.252;2022-11-11T04:02:37;102255.03;;;11.91;100.00
16120;BME280;12670;53.502;10.252;2022-11-11T04:05:57;102240.59;;;12.01;99.54
16120;BME280;12670;53.502;10.252;2022-11-11T04:09:18;102242.88;;;12.17;98.89
16120;BME280;12670;53.502;10.252;2022-11-11T04:12:39;102265.00;;;12.19;98.46
16120;BME280;12670;53.502;10.252;2022-11-11T04:15:58;102258.22;;;12.06;98.43
16120;BME280;12670;53.502;10.252;2022-11-11T04:19:09;102264.06;;;12.21;98.26
16120;BME280;12670;53.502;10.252;2022-11-11T04:22:30;102272.97;;;12.19;98.37
16120;BME280;12670;53.502;10.252;2022-11-11T04:25:32;102270.56;;;12.10;99.33
16120;BME280;12670;53.502;10.252;2022-11-11T04:28:49;102265.16;;;12.13;98.35
16120;BME280;12670;53.502;10.252;2022-11-11T04:32:12;102265.97;;;12.16;98.48
16120;BME280;12670;53.502;10.252;2022-11-11T04:35:33;102278.78;;;12.36;97.37
16120;BME280;12670;53.502;10.252;2022-11-11T04:38:35;102276.84;;;12.06;98.67
16120;BME280;12670;53.502;10.252;2022-11-11T04:41:56;102271.59;;;12.04;98.66
16120;BME280;12670;53.502;10.252;2022-11-11T04:45:14;102276.31;;;11.91;99.24
16120;BME280;12670;53.502;10.252;2022-11-11T04:48:34;102274.56;;;11.89;99.64
16120;BME280;12670;53.502;10.252;2022-11-11T04:51:36;102284.94;;;12.03;98.70
16120;BME280;12670;53.502;10.252;2022-11-11T04:54:53;102272.94;;;11.83;99.90
16120;BME280;12670;53.502;10.252;2022-11-11T04:58:23;102265.81;;;11.85;100.00
16120;BME280;12670;53.502;10.252;2022-11-11T05:01:25;102268.47;;;11.85;100.00
16120;BME280;12670;53.502;10.252;2022-11-11T05:04:47;102275.69;;;11.79;100.00
16120;BME280;12670;53.502;10.252;2022-11-11T05:07:50;102279.59;;;12.03;98.87
16120;BME280;12670;53.502;10.252;2022-11-11T05:11:10;102278.34;;;11.79;100.00
16120;BME280;12670;53.502;10.252;2022-11-11T05:14:13;102280.09;;;11.81;99.58
16120;BME280;12670;53.502;10.252;2022-11-11T05:17:33;102271.25;;;11.79;99.91
16120;BME280;12670;53.502;10.252;2022-11-11T05:20:51;102266.56;;;11.48;100.00
16120;BME280;12670;53.502;10.252;2022-11-11T05:24:11;102260.19;;;11.57;100.00
16120;BME280;12670;53.502;10.252;2022-11-11T05:27:31;102257.84;;;11.84;99.88
16120;BME280;12670;53.502;10.252;2022-11-11T05:30:34;102255.06;;;11.48;100.00
16120;BME280;12670;53.502;10.252;2022-11-11T05:33:41;102263.31;;;11.76;100.00
16120;BME280;12670;53.502;10.252;2022-11-11T05:36:45;102259.31;;;11.57;100.00
16120;BME280;12670;53.502;10.252;2022-11-11T05:39:48;102254.41;;;11.38;100.00
16120;BME280;12670;53.502;10.252;2022-11-11T05:42:50;102256.63;;;11.58;100.00
16120;BME280;12670;53.502;10.252;2022-11-11T05:45:55;102266.69;;;11.42;100.00
16120;BME280;12670;53.502;10.252;2022-11-11T05:48:57;102274.97;;;11.29;100.00
16120;BME280;12670;53.502;10.252;2022-11-11T05:52:19;102261.13;;;11.55;100.00
16120;BME280;12670;53.502;10.252;2022-11-11T05:55:22;102275.28;;;11.57;100.00
16120;BME280;12670;53.502;10.252;2022-11-11T05:58:25;102276.25;;;11.53;100.00
16120;BME280;12670;53.502;10.252;2022-11-11T06:01:27;102274.44;;;11.53;100.00
16120;BME280;12670;53.502;10.252;2022-11-11T06:04:30;102278.25;;;11.41;100.00
16120;BME280;12670;53.502;10.252;2022-11-11T06:07:37;102264.69;;;11.54;100.00
16120;BME280;12670;53.502;10.252;2022-11-11T06:10:42;102273.41;;;11.62;100.00
16120;BME280;12670;53.502;10.252;2022-11-11T06:13:44;102285.50;;;11.33;100.00
16120;BME280;12670;53.502;10.252;2022-11-11T06:16:47;102280.69;;;11.52;100.00
16120;BME280;12670;53.502;10.252;2022-11-11T06:19:50;102294.16;;;11.43;100.00
16120;BME280;12670;53.502;10.252;2022-11-11T06:22:54;102300.28;;;11.46;100.00
16120;BME280;12670;53.502;10.252;2022-11-11T06:26:00;102299.66;;;11.34;100.00
16120;BME280;12670;53.502;10.252;2022-11-11T06:29:15;102305.69;;;11.43;100.00
16120;BME280;12670;53.502;10.252;2022-11-11T06:32:17;102297.53;;;11.51;100.00
16120;BME280;12670;53.502;10.252;2022-11-11T06:35:20;102301.19;;;11.45;100.00
16120;BME280;12670;53.502;10.252;2022-11-11T06:38:24;102301.00;;;11.55;100.00
16120;BME280;12670;53.502;10.252;2022-11-11T06:41:27;102307.34;;;11.47;100.00
16120;BME280;12670;53.502;10.252;2022-11-11T06:44:29;102301.84;;;11.57;100.00
16120;BME280;12670;53.502;10.252;2022-11-11T06:47:32;102311.63;;;11.56;100.00
16120;BME280;12670;53.502;10.252;2022-11-11T06:50:35;102317.50;;;11.70;100.00
16120;BME280;12670;53.502;10.252;2022-11-11T06:53:39;102332.13;;;11.50;100.00
16120;BME280;12670;53.502;10.252;2022-11-11T06:56:41;102327.94;;;11.36;100.00
16120;BME280;12670;53.502;10.252;2022-11-11T06:59:44;102335.91;;;11.38;100.00
16120;BME280;12670;53.502;10.252;2022-11-11T07:02:54;102341.69;;;11.58;100.00
16120;BME280;12670;53.502;10.252;2022-11-11T07:05:59;102347.09;;;11.55;100.00
16120;BME280;12670;53.502;10.252;2022-11-11T07:09:03;102340.63;;;11.67;100.00
16120;BME280;12670;53.502;10.252;2022-11-11T07:12:06;102354.28;;;11.48;100.00
16120;BME280;12670;53.502;10.252;2022-11-11T07:15:09;102362.25;;;11.48;100.00
16120;BME280;12670;53.502;10.252;2022-11-11T07:18:12;102354.69;;;11.73;100.00
16120;BME280;12670;53.502;10.252;2022-11-11T07:21:15;102361.13;;;11.60;100.00
16120;BME280;12670;53.502;10.252;2022-11-11T07:24:19;102365.25;;;11.32;100.00
16120;BME280;12670;53.502;10.252;2022-11-11T07:27:22;102368.59;;;11.41;100.00
16120;BME280;12670;53.502;10.252;2022-11-11T07:30:25;102365.97;;;11.40;100.00
16120;BME280;12670;53.502;10.252;2022-11-11T07:33:27;102365.94;;;11.41;100.00
16120;BME280;12670;53.502;10.252;2022-11-11T07:36:30;102370.66;;;11.26;100.00
16120;BME280;12670;53.502;10.252;2022-11-11T07:39:34;102382.19;;;11.26;100.00
16120;BME280;12670;53.502;10.252;2022-11-11T07:42:37;102376.66;;;11.38;100.00
16120;BME280;12670;53.502;10.252;2022-11-11T07:45:40;102380.31;;;11.31;100.00
16120;BME280;12670;53.502;10.252;2022-11-11T07:48:43;102377.75;;;11.27;100.00
16120;BME280;12670;53.502;10.252;2022-11-11T07:51:45;102382.03;;;11.34;100.00
16120;BME280;12670;53.502;10.252;2022-11-11T07:54:49;102380.81;;;11.52;100.00
16120;BME280;12670;53.502;10.252;2022-11-11T07:57:52;102376.81;;;11.74;100.00
16120;BME280;12670;53.502;10.252;2022-11-11T08:00:58;102381.22;;;11.75;100.00
16120;BME280;12670;53.502;10.252;2022-11-11T08:04:07;102392.03;;;11.67;100.00
16120;BME280;12670;53.502;10.252;2022-11-11T08:07:10;102392.16;;;11.60;100.00
16120;BME280;12670;53.502;10.252;2022-11-11T08:10:14;102392.59;;;11.85;100.00
16120;BME280;12670;53.502;10.252;2022-11-11T08:13:17;102400.97;;;11.63;100.00
16120;BME280;12670;53.502;10.252;2022-11-11T08:16:37;102408.00;;;11.66;100.00
16120;BME280;12670;53.502;10.252;2022-11-11T08:19:40;102406.38;;;11.59;100.00
16120;BME280;12670;53.502;10.252;2022-11-11T08:22:42;102406.09;;;11.26;100.00
16120;BME280;12670;53.502;10.252;2022-11-11T08:26:06;102414.41;;;11.54;100.00
16120;BME280;12670;53.502;10.252;2022-11-11T08:29:09;102411.31;;;11.77;100.00
16120;BME280;12670;53.502;10.252;2022-11-11T08:32:12;102408.31;;;11.51;100.00
16120;BME280;12670;53.502;10.252;2022-11-11T08:35:15;102419.56;;;11.63;100.00
16120;BME280;12670;53.502;10.252;2022-11-11T08:38:17;102420.16;;;11.79;100.00
16120;BME280;12670;53.502;10.252;2022-11-11T08:41:22;102427.47;;;11.68;100.00
16120;BME280;12670;53.502;10.252;2022-11-11T08:44:24;102427.34;;;11.74;100.00
16120;BME280;12670;53.502;10.252;2022-11-11T08:47:27;102440.47;;;11.83;100.00
16120;BME280;12670;53.502;10.252;2022-11-11T08:50:30;102447.25;;;11.99;100.00
16120;BME280;12670;53.502;10.252;2022-11-11T08:53:32;102450.25;;;11.83;100.00
16120;BME280;12670;53.502;10.252;2022-11-11T08:56:36;102435.16;;;11.85;100.00
16120;BME280;12670;53.502;10.252;2022-11-11T08:59:39;102456.19;;;11.95;100.00
16120;BME280;12670;53.502;10.252;2022-11-11T09:02:42;102448.28;;;11.92;100.00
16120;BME280;12670;53.502;10.252;2022-11-11T09:05:44;102452.53;;;12.03;100.00
16120;BME280;12670;53.502;10.252;2022-11-11T09:08:48;102451.72;;;11.97;100.00
16120;BME280;12670;53.502;10.252;2022-11-11T09:11:52;102455.09;;;12.06;100.00
16120;BME280;12670;53.502;10.252;2022-11-11T09:14:54;102461.34;;;12.05;100.00
16120;BME280;12670;53.502;10.252;2022-11-11T09:17:57;102461.38;;;12.01;100.00
16120;BME280;12670;53.502;10.252;2022-11-11T09:21:00;102460.53;;;11.99;100.00
16120;BME280;12670;53.502;10.252;2022-11-11T09:24:03;102462.03;;;12.13;100.00
16120;BME280;12670;53.502;10.252;2022-11-11T09:27:08;102476.22;;;12.13;100.00
16120;BME280;12670;53.502;10.252;2022-11-11T09:30:11;102477.53;;;11.92;100.00
16120;BME280;12670;53.502;10.252;2022-11-11T09:33:15;102473.34;;;11.79;100.00
16120;BME280;12670;53.502;10.252;2022-11-11T09:36:20;102478.00;;;11.66;100.00
16120;BME280;12670;53.502;10.252;2022-11-11T09:39:22;102487.44;;;11.84;100.00
16120;BME280;12670;53.502;10.252;2022-11-11T09:42:32;102486.31;;;11.97;100.00
16120;BME280;12670;53.502;10.252;2022-11-11T09:45:47;102487.16;;;11.99;100.00
16120;BME280;12670;53.502;10.252;2022-11-11T09:49:20;102492.19;;;12.15;100.00
16120;BME280;12670;53.502;10.252;2022-11-11T09:52:28;102486.84;;;12.15;100.00
16120;BME280;12670;53.502;10.252;2022-11-11T09:55:36;102487.28;;;11.93;100.00
16120;BME280;12670;53.502;10.252;2022-11-11T09:58:45;102484.50;;;11.99;100.00
16120;BME280;12670;53.502;10.252;2022-11-11T10:01:53;102488.38;;;11.80;100.00
16120;BME280;12670;53.502;10.252;2022-11-11T10:05:03;102484.13;;;11.70;100.00
16120;BME280;12670;53.502;10.252;2022-11-11T10:08:12;102498.59;;;12.05;100.00
16120;BME280;12670;53.502;10.252;2022-11-11T10:11:20;102496.22;;;11.89;100.00
16120;BME280;12670;53.502;10.252;2022-11-11T10:14:33;102502.91;;;12.10;100.00
16120;BME280;12670;53.502;10.252;2022-11-11T10:17:39;102505.56;;;12.10;100.00
16120;BME280;12670;53.502;10.252;2022-11-11T10:20:50;102499.75;;;11.90;100.00
16120;BME280;12670;53.502;10.252;2022-11-11T10:23:59;102510.06;;;12.07;100.00
16120;BME280;12670;53.502;10.252;2022-11-11T10:27:10;102514.22;;;12.21;100.00
16120;BME280;12670;53.502;10.252;2022-11-11T10:30:18;102510.94;;;12.09;100.00
16120;BME280;12670;53.502;10.252;2022-11-11T10:33:25;102509.50;;;11.89;100.00
16120;BME280;12670;53.502;10.252;2022-11-11T10:36:29;102505.06;;;11.91;100.00
16120;BME280;12670;53.502;10.252;2022-11-11T10:39:45;102515.91;;;11.79;100.00
16120;BME280;12670;53.502;10.252;2022-11-11T10:42:49;102510.84;;;11.64;100.00
16120;BME280;12670;53.502;10.252;2022-11-11T10:46:00;102514.44;;;11.60;100.00
16120;BME280;12670;53.502;10.252;2022-11-11T10:49:09;102508.16;;;11.67;100.00
16120;BME280;12670;53.502;10.252;2022-11-11T10:52:19;102515.03;;;11.77;100.00
16120;BME280;12670;53.502;10.252;2022-11-11T10:55:26;102514.09;;;11.80;100.00
16120;BME280;12670;53.502;10.252;2022-11-11T10:58:33;102519.50;;;11.75;100.00
16120;BME280;12670;53.502;10.252;2022-11-11T11:01:42;102519.34;;;11.84;100.00
16120;BME280;12670;53.502;10.252;2022-11-11T11:04:51;102520.38;;;11.75;100.00
16120;BME280;12670;53.502;10.252;2022-11-11T11:07:57;102510.78;;;11.68;100.00
16120;BME280;12670;53.502;10.252;2022-11-11T11:11:06;102513.94;;;11.90;100.00
16120;BME280;12670;53.502;10.252;2022-11-11T11:14:14;102518.94;;;12.06;100.00
16120;BME280;12670;53.502;10.252;2022-11-11T11:17:22;102515.84;;;11.82;100.00
16120;BME280;12670;53.502;10.252;2022-11-11T11:20:26;102516.59;;;11.89;100.00
16120;BME280;12670;53.502;10.252;2022-11-11T11:23:37;102513.00;;;11.93;100.00
16120;BME280;12670;53.502;10.252;2022-11-11T11:26:43;102507.72;;;11.90;100.00
16120;BME280;12670;53.502;10.252;2022-11-11T11:29:46;102515.56;;;11.97;100.00
16120;BME280;12670;53.502;10.252;2022-11-11T11:32:57;102519.16;;;11.96;100.00
16120;BME280;12670;53.502;10.252;2022-11-11T11:36:14;102528.09;;;11.92;100.00
16120;BME280;12670;53.502;10.252;2022-11-11T11:39:30;102516.66;;;11.87;100.00
16120;BME280;12670;53.502;10.252;2022-11-11T11:42:35;102526.69;;;11.70;100.00
16120;BME280;12670;53.502;10.252;2022-11-11T11:45:38;102522.31;;;11.67;100.00
16120;BME280;12670;53.502;10.252;2022-11-11T11:48:55;102522.31;;;11.66;100.00
16120;BME280;12670;53.502;10.252;2022-11-11T11:52:09;102524.88;;;11.73;100.00
16120;BME280;12670;53.502;10.252;2022-11-11T11:55:16;102520.69;;;12.07;100.00
16120;BME280;12670;53.502;10.252;2022-11-11T11:58:29;102523.84;;;12.27;100.00
16120;BME280;12670;53.502;10.252;2022-11-11T12:01:48;102519.41;;;12.27;100.00
16120;BME280;12670;53.502;10.252;2022-11-11T12:05:09;102523.97;;;12.21;99.74
16120;BME280;12670;53.502;10.252;2022-11-11T12:08:26;102522.97;;;11.80;100.00
16120;BME280;12670;53.502;10.252;2022-11-11T12:11:38;102513.94;;;11.90;100.00
16120;BME280;12670;53.502;10.252;2022-11-11T12:14:53;102521.94;;;11.90;100.00
16120;BME280;12670;53.502;10.252;2022-11-11T12:18:21;102516.78;;;11.78;100.00
16120;BME280;12670;53.502;10.252;2022-11-11T12:21:38;102515.47;;;12.04;100.00
16120;BME280;12670;53.502;10.252;2022-11-11T12:24:48;102508.63;;;11.90;100.00
16120;BME280;12670;53.502;10.252;2022-11-11T12:27:58;102513.81;;;11.96;100.00
16120;BME280;12670;53.502;10.252;2022-11-11T12:31:12;102519.69;;;12.14;100.00
16120;BME280;12670;53.502;10.252;2022-11-11T12:34:29;102515.38;;;12.07;100.00
16120;BME280;12670;53.502;10.252;2022-11-11T12:37:42;102514.88;;;12.31;100.00
16120;BME280;12670;53.502;10.252;2022-11-11T12:40:57;102520.72;;;12.50;99.07
16120;BME280;12670;53.502;10.252;2022-11-11T12:44:04;102513.66;;;12.49;98.18
16120;BME280;12670;53.502;10.252;2022-11-11T12:47:20;102518.84;;;12.55;97.18
16120;BME280;12670;53.502;10.252;2022-11-11T12:50:30;102515.25;;;12.54;98.21
16120;BME280;12670;53.502;10.252;2022-11-11T12:53:43;102516.25;;;12.50;97.84
16120;BME280;12670;53.502;10.252;2022-11-11T12:56:55;102516.25;;;12.50;99.45
16120;BME280;12670;53.502;10.252;2022-11-11T13:00:08;102514.16;;;12.65;97.72
16120;BME280;12670;53.502;10.252;2022-11-11T13:03:34;102513.91;;;12.35;98.64
16120;BME280;12670;53.502;10.252;2022-11-11T13:07:10;102517.84;;;12.59;99.04
16120;BME280;12670;53.502;10.252;2022-11-11T13:10:26;102512.75;;;12.48;98.91
16120;BME280;12670;53.502;10.252;2022-11-11T13:13:44;102521.38;;;12.60;98.92
16120;BME280;12670;53.502;10.252;2022-11-11T13:16:51;102516.91;;;12.60;98.30
16120;BME280;12670;53.502;10.252;2022-11-11T13:19:59;102516.69;;;12.72;98.11
16120;BME280;12670;53.502;10.252;2022-11-11T13:23:07;102522.88;;;12.73;98.17
16120;BME280;12670;53.502;10.252;2022-11-11T13:26:22;102532.03;;;12.60;98.50
16120;BME280;12670;53.502;10.252;2022-11-11T13:29:45;102532.88;;;12.62;99.07
16120;BME280;12670;53.502;10.252;2022-11-11T13:32:54;102540.06;;;12.58;99.37
16120;BME280;12670;53.502;10.252;2022-11-11T13:36:01;102537.81;;;12.80;98.94
16120;BME280;12670;53.502;10.252;2022-11-11T13:39:04;102545.94;;;12.74;98.85
16120;BME280;12670;53.502;10.252;2022-11-11T13:42:12;102546.66;;;12.80;99.27
16120;BME280;12670;53.502;10.252;2022-11-11T13:45:25;102541.41;;;12.77;98.79
16120;BME280;12670;53.502;10.252;2022-11-11T13:48:32;102539.13;;;12.61;100.00
16120;BME280;12670;53.502;10.252;2022-11-11T13:51:38;102544.47;;;12.61;100.00
16120;BME280;12670;53.502;10.252;2022-11-11T13:54:47;102536.88;;;12.81;100.00
16120;BME280;12670;53.502;10.252;2022-11-11T13:57:52;102553.16;;;12.69;100.00
16120;BME280;12670;53.502;10.252;2022-11-11T14:00:57;102556.31;;;12.86;100.00
16120;BME280;12670;53.502;10.252;2022-11-11T14:04:03;102542.75;;;12.97;99.44
16120;BME280;12670;53.502;10.252;2022-11-11T14:07:06;102541.66;;;13.05;99.98
16120;BME280;12670;53.502;10.252;2022-11-11T14:13:53;102544.13;;;13.13;99.15
16120;BME280;12670;53.502;10.252;2022-11-11T14:16:59;102549.59;;;13.08;99.42
16120;BME280;12670;53.502;10.252;2022-11-11T14:20:34;102543.25;;;13.13;99.12
16120;BME280;12670;53.502;10.252;2022-11-11T14:23:39;102543.09;;;13.19;98.67
16120;BME280;12670;53.502;10.252;2022-11-11T14:26:42;102545.63;;;13.26;97.92
16120;BME280;12670;53.502;10.252;2022-11-11T14:29:59;102548.41;;;13.22;98.48
16120;BME280;12670;53.502;10.252;2022-11-11T14:33:08;102554.56;;;13.25;98.60
16120;BME280;12670;53.502;10.252;2022-11-11T14:36:19;102557.34;;;13.19;98.48
16120;BME280;12670;53.502;10.252;2022-11-11T14:39:35;102560.06;;;13.16;99.67
16120;BME280;12670;53.502;10.252;2022-11-11T14:42:43;102557.09;;;13.30;98.58
16120;BME280;12670;53.502;10.252;2022-11-11T14:46:00;102558.09;;;13.26;98.42
16120;BME280;12670;53.502;10.252;2022-11-11T14:49:03;102562.22;;;13.39;98.03
16120;BME280;12670;53.502;10.252;2022-11-11T14:52:17;102555.94;;;13.40;98.47
16120;BME280;12670;53.502;10.252;2022-11-11T14:55:25;102555.03;;;13.41;97.98
16120;BME280;12670;53.502;10.252;2022-11-11T14:58:32;102560.38;;;13.41;97.51
16120;BME280;12670;53.502;10.252;2022-11-11T15:01:37;102558.88;;;13.29;98.39
16120;BME280;12670;53.502;10.252;2022-11-11T15:04:40;102560.47;;;13.38;97.55
16120;BME280;12670;53.502;10.252;2022-11-11T15:07:58;102560.59;;;13.32;97.78
16120;BME280;12670;53.502;10.252;2022-11-11T15:11:13;102557.03;;;13.33;98.95
16120;BME280;12670;53.502;10.252;2022-11-11T15:14:26;102556.22;;;13.29;99.02
16120;BME280;12670;53.502;10.252;2022-11-11T15:17:41;102565.22;;;13.24;99.00
16120;BME280;12670;53.502;10.252;2022-11-11T15:21:04;102570.75;;;13.15;99.41
16120;BME280;12670;53.502;10.252;2022-11-11T15:24:19;102568.28;;;13.05;100.00
16120;BME280;12670;53.502;10.252;2022-11-11T15:27:31;102569.28;;;13.01;99.74
16120;BME280;12670;53.502;10.252;2022-11-11T15:30:48;102569.34;;;12.98;100.00
16120;BME280;12670;53.502;10.252;2022-11-11T15:34:04;102578.41;;;12.90;100.00
16120;BME280;12670;53.502;10.252;2022-11-11T15:37:11;102574.91;;;12.88;100.00
16120;BME280;12670;53.502;10.252;2022-11-11T15:40:18;102567.88;;;12.85;100.00
16120;BME280;12670;53.502;10.252;2022-11-11T15:43:24;102566.19;;;12.81;100.00
16120;BME280;12670;53.502;10.252;2022-11-11T15:46:30;102572.38;;;12.81;100.00
16120;BME280;12670;53.502;10.252;2022-11-11T15:49:40;102584.13;;;12.73;100.00
16120;BME280;12670;53.502;10.252;2022-11-11T15:52:43;102586.81;;;12.73;100.00
16120;BME280;12670;53.502;10.252;2022-11-11T15:55:51;102587.81;;;12.66;100.00
16120;BME280;12670;53.502;10.252;2022-11-11T15:58:54;102590.59;;;12.61;100.00
16120;BME280;12670;53.502;10.252;2022-11-11T16:01:57;102589.72;;;12.59;100.00
16120;BME280;12670;53.502;10.252;2022-11-11T16:05:03;102581.81;;;12.54;100.00
16120;BME280;12670;53.502;10.252;2022-11-11T16:08:14;102591.59;;;12.54;100.00
16120;BME280;12670;53.502;10.252;2022-11-11T16:11:20;102598.75;;;12.52;100.00